sensor_id;sensor_type;location;lat;lon;timestamp;temperature;humidity
32524;DHT22;18965;52.242;20.886;2022-08-25T00:02:02;21.70;82.30
32524;DHT22;18965;52.242;20.886;2022-08-25T00:04:31;21.70;82.20
32524;DHT22;18965;52.242;20.886;2022-08-25T00:06:57;21.70;82.10
32524;DHT22;18965;52.242;20.886;2022-08-25T00:09:25;21.70;82.80
32524;DHT22;18965;52.242;20.886;2022-08-25T00:11:52;21.70;82.00
32524;DHT22;18965;52.242;20.886;2022-08-25T00:14:22;21.70;82.00
32524;DHT22;18965;52.242;20.886;2022-08-25T00:16:48;21.70;82.00
32524;DHT22;18965;52.242;20.886;2022-08-25T00:19:19;21.70;81.90
32524;DHT22;18965;52.242;20.886;2022-08-25T00:21:46;21.70;82.00
32524;DHT22;18965;52.242;20.886;2022-08-25T00:24:15;21.70;82.00
32524;DHT22;18965;52.242;20.886;2022-08-25T00:26:43;21.70;82.10
32524;DHT22;18965;52.242;20.886;2022-08-25T00:29:10;21.70;82.10
32524;DHT22;18965;52.242;20.886;2022-08-25T00:31:35;21.70;82.10
32524;DHT22;18965;52.242;20.886;2022-08-25T00:34:01;21.70;82.10
32524;DHT22;18965;52.242;20.886;2022-08-25T00:36:27;21.70;82.20
32524;DHT22;18965;52.242;20.886;2022-08-25T00:38:54;21.70;82.30
32524;DHT22;18965;52.242;20.886;2022-08-25T00:41:22;21.70;82.30
32524;DHT22;18965;52.242;20.886;2022-08-25T00:43:59;21.70;82.40
32524;DHT22;18965;52.242;20.886;2022-08-25T00:46:33;21.70;82.60
32524;DHT22;18965;52.242;20.886;2022-08-25T00:49:03;21.70;82.60
32524;DHT22;18965;52.242;20.886;2022-08-25T00:52:01;21.70;82.70
32524;DHT22;18965;52.242;20.886;2022-08-25T00:54:34;21.70;82.80
32524;DHT22;18965;52.242;20.886;2022-08-25T00:57:04;21.70;82.80
32524;DHT22;18965;52.242;20.886;2022-08-25T00:59:30;21.70;82.80
32524;DHT22;18965;52.242;20.886;2022-08-25T01:01:57;21.60;82.90
32524;DHT22;18965;52.242;20.886;2022-08-25T01:04:24;21.70;83.10
32524;DHT22;18965;52.242;20.886;2022-08-25T01:06:50;21.70;83.10
32524;DHT22;18965;52.242;20.886;2022-08-25T01:09:16;21.70;83.20
32524;DHT22;18965;52.242;20.886;2022-08-25T01:11:44;21.70;83.30
32524;DHT22;18965;52.242;20.886;2022-08-25T01:14:12;21.70;83.30
32524;DHT22;18965;52.242;20.886;2022-08-25T01:16:39;21.70;83.40
32524;DHT22;18965;52.242;20.886;2022-08-25T01:19:06;21.70;83.40
32524;DHT22;18965;52.242;20.886;2022-08-25T01:21:38;21.70;83.50
32524;DHT22;18965;52.242;20.886;2022-08-25T01:24:04;21.70;83.50
32524;DHT22;18965;52.242;20.886;2022-08-25T01:26:34;21.80;83.50
32524;DHT22;18965;52.242;20.886;2022-08-25T01:29:03;21.80;83.60
32524;DHT22;18965;52.242;20.886;2022-08-25T01:32:00;21.80;83.50
32524;DHT22;18965;52.242;20.886;2022-08-25T01:34:30;21.80;83.50
32524;DHT22;18965;52.242;20.886;2022-08-25T01:36:57;21.80;83.60
32524;DHT22;18965;52.242;20.886;2022-08-25T01:39:25;21.80;83.60
32524;DHT22;18965;52.242;20.886;2022-08-25T01:44:33;21.80;83.80
32524;DHT22;18965;52.242;20.886;2022-08-25T01:47:00;21.80;83.80
32524;DHT22;18965;52.242;20.886;2022-08-25T01:49:26;21.80;83.70
32524;DHT22;18965;52.242;20.886;2022-08-25T01:52:00;21.80;83.80
32524;DHT22;18965;52.242;20.886;2022-08-25T01:54:26;21.80;84.00
32524;DHT22;18965;52.242;20.886;2022-08-25T01:56:52;21.80;83.90
32524;DHT22;18965;52.242;20.886;2022-08-25T01:59:19;21.80;84.00
32524;DHT22;18965;52.242;20.886;2022-08-25T02:01:46;21.80;84.10
32524;DHT22;18965;52.242;20.886;2022-08-25T02:04:11;21.90;84.20
32524;DHT22;18965;52.242;20.886;2022-08-25T02:06:38;21.80;84.10
32524;DHT22;18965;52.242;20.886;2022-08-25T02:09:08;21.90;84.30
32524;DHT22;18965;52.242;20.886;2022-08-25T02:11:36;21.80;84.30
32524;DHT22;18965;52.242;20.886;2022-08-25T02:14:03;21.80;84.30
32524;DHT22;18965;52.242;20.886;2022-08-25T02:16:32;21.80;84.40
32524;DHT22;18965;52.242;20.886;2022-08-25T02:18:59;21.80;84.50
32524;DHT22;18965;52.242;20.886;2022-08-25T02:21:25;21.80;84.60
32524;DHT22;18965;52.242;20.886;2022-08-25T02:23:51;21.80;84.60
32524;DHT22;18965;52.242;20.886;2022-08-25T02:26:17;21.80;84.70
32524;DHT22;18965;52.242;20.886;2022-08-25T02:28:48;21.80;84.70
32524;DHT22;18965;52.242;20.886;2022-08-25T02:31:16;21.90;84.90
32524;DHT22;18965;52.242;20.886;2022-08-25T02:33:42;21.90;84.80
32524;DHT22;18965;52.242;20.886;2022-08-25T02:36:08;21.90;84.90
32524;DHT22;18965;52.242;20.886;2022-08-25T02:38:35;21.90;85.00
32524;DHT22;18965;52.242;20.886;2022-08-25T02:41:08;21.90;85.00
32524;DHT22;18965;52.242;20.886;2022-08-25T02:43:34;22.00;85.80
32524;DHT22;18965;52.242;20.886;2022-08-25T02:46:00;22.00;85.00
32524;DHT22;18965;52.242;20.886;2022-08-25T02:48:26;22.00;85.00
32524;DHT22;18965;52.242;20.886;2022-08-25T02:50:51;22.00;85.10
32524;DHT22;18965;52.242;20.886;2022-08-25T02:53:19;22.10;85.10
32524;DHT22;18965;52.242;20.886;2022-08-25T02:55:45;22.10;85.10
32524;DHT22;18965;52.242;20.886;2022-08-25T02:58:13;22.10;85.80
32524;DHT22;18965;52.242;20.886;2022-08-25T03:00:38;22.10;85.00
32524;DHT22;18965;52.242;20.886;2022-08-25T03:03:05;22.20;85.00
32524;DHT22;18965;52.242;20.886;2022-08-25T03:05:31;22.20;85.00
32524;DHT22;18965;52.242;20.886;2022-08-25T03:07:57;22.20;85.00
32524;DHT22;18965;52.242;20.886;2022-08-25T03:10:24;22.20;85.70
32524;DHT22;18965;52.242;20.886;2022-08-25T03:12:50;22.20;85.00
32524;DHT22;18965;52.242;20.886;2022-08-25T03:15:16;22.20;85.00
32524;DHT22;18965;52.242;20.886;2022-08-25T03:17:43;22.20;84.90
32524;DHT22;18965;52.242;20.886;2022-08-25T03:20:09;22.30;85.00
32524;DHT22;18965;52.242;20.886;2022-08-25T03:22:35;22.30;84.90
32524;DHT22;18965;52.242;20.886;2022-08-25T03:25:03;22.30;84.90
32524;DHT22;18965;52.242;20.886;2022-08-25T03:27:47;22.30;84.80
32524;DHT22;18965;52.242;20.886;2022-08-25T03:30:14;22.40;84.80
32524;DHT22;18965;52.242;20.886;2022-08-25T03:32:40;22.30;84.60
32524;DHT22;18965;52.242;20.886;2022-08-25T03:35:07;22.30;84.60
32524;DHT22;18965;52.242;20.886;2022-08-25T03:37:34;22.40;84.60
32524;DHT22;18965;52.242;20.886;2022-08-25T03:40:01;22.40;84.60
32524;DHT22;18965;52.242;20.886;2022-08-25T03:42:27;22.40;84.50
32524;DHT22;18965;52.242;20.886;2022-08-25T03:44:53;22.40;84.40
32524;DHT22;18965;52.242;20.886;2022-08-25T03:47:19;22.40;84.30
32524;DHT22;18965;52.242;20.886;2022-08-25T03:49:45;22.50;84.30
32524;DHT22;18965;52.242;20.886;2022-08-25T03:52:11;22.50;84.20
32524;DHT22;18965;52.242;20.886;2022-08-25T03:54:37;22.50;84.00
32524;DHT22;18965;52.242;20.886;2022-08-25T03:57:02;22.50;84.00
32524;DHT22;18965;52.242;20.886;2022-08-25T03:59:28;22.50;83.90
32524;DHT22;18965;52.242;20.886;2022-08-25T04:01:54;22.50;83.80
32524;DHT22;18965;52.242;20.886;2022-08-25T04:04:20;22.50;83.80
32524;DHT22;18965;52.242;20.886;2022-08-25T04:06:45;22.50;83.70
32524;DHT22;18965;52.242;20.886;2022-08-25T04:09:12;22.50;83.60
32524;DHT22;18965;52.242;20.886;2022-08-25T04:11:38;22.60;83.60
32524;DHT22;18965;52.242;20.886;2022-08-25T04:14:04;22.50;83.50
32524;DHT22;18965;52.242;20.886;2022-08-25T04:16:32;22.60;83.50
32524;DHT22;18965;52.242;20.886;2022-08-25T04:19:00;22.60;83.50
32524;DHT22;18965;52.242;20.886;2022-08-25T04:21:27;22.50;83.40
32524;DHT22;18965;52.242;20.886;2022-08-25T04:23:54;22.50;83.40
32524;DHT22;18965;52.242;20.886;2022-08-25T04:26:26;22.60;83.30
32524;DHT22;18965;52.242;20.886;2022-08-25T04:28:53;22.60;83.40
32524;DHT22;18965;52.242;20.886;2022-08-25T04:31:20;22.70;83.30
32524;DHT22;18965;52.242;20.886;2022-08-25T04:33:46;22.60;83.10
32524;DHT22;18965;52.242;20.886;2022-08-25T04:36:14;22.70;83.20
32524;DHT22;18965;52.242;20.886;2022-08-25T04:38:42;22.70;83.10
32524;DHT22;18965;52.242;20.886;2022-08-25T04:41:13;22.70;83.00
32524;DHT22;18965;52.242;20.886;2022-08-25T04:43:41;22.80;83.70
32524;DHT22;18965;52.242;20.886;2022-08-25T04:46:21;22.80;82.80
32524;DHT22;18965;52.242;20.886;2022-08-25T04:48:49;22.90;82.70
32524;DHT22;18965;52.242;20.886;2022-08-25T04:51:19;22.90;82.50
32524;DHT22;18965;52.242;20.886;2022-08-25T04:53:45;22.90;82.40
32524;DHT22;18965;52.242;20.886;2022-08-25T04:56:13;22.90;82.30
32524;DHT22;18965;52.242;20.886;2022-08-25T04:58:40;23.00;82.30
32524;DHT22;18965;52.242;20.886;2022-08-25T05:01:12;23.00;82.90
32524;DHT22;18965;52.242;20.886;2022-08-25T05:03:40;23.10;82.20
32524;DHT22;18965;52.242;20.886;2022-08-25T05:06:07;23.10;82.10
32524;DHT22;18965;52.242;20.886;2022-08-25T05:08:34;23.20;81.80
32524;DHT22;18965;52.242;20.886;2022-08-25T05:11:07;23.20;81.70
32524;DHT22;18965;52.242;20.886;2022-08-25T05:13:34;23.30;81.60
32524;DHT22;18965;52.242;20.886;2022-08-25T05:16:00;23.40;81.60
32524;DHT22;18965;52.242;20.886;2022-08-25T05:18:29;23.50;81.40
32524;DHT22;18965;52.242;20.886;2022-08-25T05:20:55;23.60;81.40
32524;DHT22;18965;52.242;20.886;2022-08-25T05:23:24;23.70;81.80
32524;DHT22;18965;52.242;20.886;2022-08-25T05:25:50;23.80;80.70
32524;DHT22;18965;52.242;20.886;2022-08-25T05:28:18;23.90;80.50
32524;DHT22;18965;52.242;20.886;2022-08-25T05:30:45;23.90;80.20
32524;DHT22;18965;52.242;20.886;2022-08-25T05:33:14;24.00;79.90
32524;DHT22;18965;52.242;20.886;2022-08-25T05:35:41;24.10;79.80
32524;DHT22;18965;52.242;20.886;2022-08-25T05:38:07;24.10;79.30
32524;DHT22;18965;52.242;20.886;2022-08-25T05:40:35;24.10;78.90
32524;DHT22;18965;52.242;20.886;2022-08-25T05:43:01;24.20;79.10
32524;DHT22;18965;52.242;20.886;2022-08-25T05:45:27;24.30;78.80
32524;DHT22;18965;52.242;20.886;2022-08-25T05:47:52;24.40;78.20
32524;DHT22;18965;52.242;20.886;2022-08-25T05:50:19;24.40;77.90
32524;DHT22;18965;52.242;20.886;2022-08-25T05:52:45;24.40;77.70
32524;DHT22;18965;52.242;20.886;2022-08-25T05:55:11;24.40;77.60
32524;DHT22;18965;52.242;20.886;2022-08-25T05:57:37;24.50;77.60
32524;DHT22;18965;52.242;20.886;2022-08-25T06:00:05;24.60;77.50
32524;DHT22;18965;52.242;20.886;2022-08-25T06:02:30;24.70;77.30
32524;DHT22;18965;52.242;20.886;2022-08-25T06:05:28;24.80;77.10
32524;DHT22;18965;52.242;20.886;2022-08-25T06:07:54;25.00;76.80
32524;DHT22;18965;52.242;20.886;2022-08-25T06:10:21;25.30;76.10
32524;DHT22;18965;52.242;20.886;2022-08-25T06:12:47;25.60;75.00
32524;DHT22;18965;52.242;20.886;2022-08-25T06:15:19;25.80;74.40
32524;DHT22;18965;52.242;20.886;2022-08-25T06:17:46;25.80;73.70
32524;DHT22;18965;52.242;20.886;2022-08-25T06:20:18;25.80;73.80
32524;DHT22;18965;52.242;20.886;2022-08-25T06:22:45;25.80;73.70
32524;DHT22;18965;52.242;20.886;2022-08-25T06:25:14;25.80;73.40
32524;DHT22;18965;52.242;20.886;2022-08-25T06:27:40;25.80;73.10
32524;DHT22;18965;52.242;20.886;2022-08-25T06:30:08;25.80;73.30
32524;DHT22;18965;52.242;20.886;2022-08-25T06:32:37;25.80;73.40
32524;DHT22;18965;52.242;20.886;2022-08-25T06:35:08;25.80;73.20
32524;DHT22;18965;52.242;20.886;2022-08-25T06:37:35;25.80;73.00
32524;DHT22;18965;52.242;20.886;2022-08-25T06:40:01;25.90;72.90
32524;DHT22;18965;52.242;20.886;2022-08-25T06:42:27;25.90;72.80
32524;DHT22;18965;52.242;20.886;2022-08-25T06:44:52;26.00;72.60
32524;DHT22;18965;52.242;20.886;2022-08-25T06:47:18;26.00;72.10
32524;DHT22;18965;52.242;20.886;2022-08-25T06:49:44;26.10;72.40
32524;DHT22;18965;52.242;20.886;2022-08-25T06:52:11;26.10;72.40
32524;DHT22;18965;52.242;20.886;2022-08-25T06:54:37;26.10;71.70
32524;DHT22;18965;52.242;20.886;2022-08-25T06:57:04;26.10;71.60
32524;DHT22;18965;52.242;20.886;2022-08-25T06:59:32;26.20;71.90
32524;DHT22;18965;52.242;20.886;2022-08-25T07:01:59;26.20;72.00
32524;DHT22;18965;52.242;20.886;2022-08-25T07:04:25;26.30;71.90
32524;DHT22;18965;52.242;20.886;2022-08-25T07:06:51;26.40;71.30
32524;DHT22;18965;52.242;20.886;2022-08-25T07:09:17;26.50;70.90
32524;DHT22;18965;52.242;20.886;2022-08-25T07:11:44;26.50;70.30
32524;DHT22;18965;52.242;20.886;2022-08-25T07:14:12;26.60;70.40
32524;DHT22;18965;52.242;20.886;2022-08-25T07:16:39;26.70;70.00
32524;DHT22;18965;52.242;20.886;2022-08-25T07:19:06;26.80;69.40
32524;DHT22;18965;52.242;20.886;2022-08-25T07:21:34;26.90;69.20
32524;DHT22;18965;52.242;20.886;2022-08-25T07:24:01;27.00;69.40
32524;DHT22;18965;52.242;20.886;2022-08-25T07:26:31;27.10;68.30
32524;DHT22;18965;52.242;20.886;2022-08-25T07:28:59;27.10;68.10
32524;DHT22;18965;52.242;20.886;2022-08-25T07:31:26;27.20;68.30
32524;DHT22;18965;52.242;20.886;2022-08-25T07:33:52;27.30;68.40
32524;DHT22;18965;52.242;20.886;2022-08-25T07:36:36;27.40;68.10
32524;DHT22;18965;52.242;20.886;2022-08-25T07:39:03;27.50;68.00
32524;DHT22;18965;52.242;20.886;2022-08-25T07:41:31;27.70;67.90
32524;DHT22;18965;52.242;20.886;2022-08-25T07:43:58;27.80;67.50
32524;DHT22;18965;52.242;20.886;2022-08-25T07:46:24;27.90;66.80
32524;DHT22;18965;52.242;20.886;2022-08-25T07:48:50;28.00;66.90
32524;DHT22;18965;52.242;20.886;2022-08-25T07:51:15;28.20;67.00
32524;DHT22;18965;52.242;20.886;2022-08-25T07:53:42;28.20;66.50
32524;DHT22;18965;52.242;20.886;2022-08-25T07:56:11;28.30;66.00
32524;DHT22;18965;52.242;20.886;2022-08-25T07:58:37;28.50;65.90
32524;DHT22;18965;52.242;20.886;2022-08-25T08:01:04;28.60;66.20
32524;DHT22;18965;52.242;20.886;2022-08-25T08:03:30;28.70;66.10
32524;DHT22;18965;52.242;20.886;2022-08-25T08:05:59;28.70;66.20
32524;DHT22;18965;52.242;20.886;2022-08-25T08:08:25;28.80;65.50
32524;DHT22;18965;52.242;20.886;2022-08-25T08:10:51;28.90;65.00
32524;DHT22;18965;52.242;20.886;2022-08-25T08:13:17;29.00;64.60
32524;DHT22;18965;52.242;20.886;2022-08-25T08:15:43;29.00;64.30
32524;DHT22;18965;52.242;20.886;2022-08-25T08:18:09;29.10;64.00
32524;DHT22;18965;52.242;20.886;2022-08-25T08:20:36;29.20;63.10
32524;DHT22;18965;52.242;20.886;2022-08-25T08:23:02;29.10;63.00
32524;DHT22;18965;52.242;20.886;2022-08-25T08:25:28;29.10;62.90
32524;DHT22;18965;52.242;20.886;2022-08-25T08:27:55;29.10;62.50
32524;DHT22;18965;52.242;20.886;2022-08-25T08:30:22;29.00;62.00
32524;DHT22;18965;52.242;20.886;2022-08-25T08:32:48;28.90;62.10
32524;DHT22;18965;52.242;20.886;2022-08-25T08:35:15;28.90;62.00
32524;DHT22;18965;52.242;20.886;2022-08-25T08:37:44;28.80;62.40
32524;DHT22;18965;52.242;20.886;2022-08-25T08:40:12;28.70;61.90
32524;DHT22;18965;52.242;20.886;2022-08-25T08:53:23;28.70;63.20
32524;DHT22;18965;52.242;20.886;2022-08-25T08:55:57;28.70;64.00
32524;DHT22;18965;52.242;20.886;2022-08-25T09:01:11;28.70;64.80
32524;DHT22;18965;52.242;20.886;2022-08-25T09:03:46;28.70;64.10
32524;DHT22;18965;52.242;20.886;2022-08-25T09:06:21;28.70;64.00
32524;DHT22;18965;52.242;20.886;2022-08-25T09:08:48;28.60;64.20
32524;DHT22;18965;52.242;20.886;2022-08-25T09:14:16;28.70;64.20
32524;DHT22;18965;52.242;20.886;2022-08-25T09:17:03;28.70;64.40
32524;DHT22;18965;52.242;20.886;2022-08-25T09:22:22;28.70;63.70
32524;DHT22;18965;52.242;20.886;2022-08-25T09:25:03;28.80;64.20
32524;DHT22;18965;52.242;20.886;2022-08-25T09:32:38;28.90;64.70
32524;DHT22;18965;52.242;20.886;2022-08-25T09:35:14;28.90;65.00
32524;DHT22;18965;52.242;20.886;2022-08-25T09:37:41;28.90;64.70
32524;DHT22;18965;52.242;20.886;2022-08-25T09:40:08;28.90;64.30
32524;DHT22;18965;52.242;20.886;2022-08-25T09:42:51;28.90;64.10
32524;DHT22;18965;52.242;20.886;2022-08-25T09:45:42;29.00;64.80
32524;DHT22;18965;52.242;20.886;2022-08-25T09:48:41;29.00;64.20
32524;DHT22;18965;52.242;20.886;2022-08-25T09:51:26;29.00;64.50
32524;DHT22;18965;52.242;20.886;2022-08-25T09:56:31;29.00;64.80
32524;DHT22;18965;52.242;20.886;2022-08-25T09:59:17;29.00;65.30
32524;DHT22;18965;52.242;20.886;2022-08-25T10:01:49;29.10;64.10
32524;DHT22;18965;52.242;20.886;2022-08-25T10:04:25;29.10;64.40
32524;DHT22;18965;52.242;20.886;2022-08-25T10:06:51;29.10;63.30
32524;DHT22;18965;52.242;20.886;2022-08-25T10:09:31;29.20;63.00
32524;DHT22;18965;52.242;20.886;2022-08-25T10:12:00;29.20;62.90
32524;DHT22;18965;52.242;20.886;2022-08-25T10:19:42;29.40;62.50
32524;DHT22;18965;52.242;20.886;2022-08-25T10:24:45;29.50;59.90
32524;DHT22;18965;52.242;20.886;2022-08-25T10:27:30;29.50;59.90
32524;DHT22;18965;52.242;20.886;2022-08-25T10:35:31;29.80;58.70
32524;DHT22;18965;52.242;20.886;2022-08-25T10:46:38;30.10;57.70
32524;DHT22;18965;52.242;20.886;2022-08-25T10:49:22;30.10;57.30
32524;DHT22;18965;52.242;20.886;2022-08-25T10:52:11;30.20;57.50
32524;DHT22;18965;52.242;20.886;2022-08-25T10:54:47;30.20;53.80
32524;DHT22;18965;52.242;20.886;2022-08-25T10:57:28;30.30;52.80
32524;DHT22;18965;52.242;20.886;2022-08-25T11:00:15;30.40;50.70
32524;DHT22;18965;52.242;20.886;2022-08-25T11:02:55;30.50;53.50
32524;DHT22;18965;52.242;20.886;2022-08-25T11:10:55;30.60;50.50
32524;DHT22;18965;52.242;20.886;2022-08-25T11:13:49;30.60;50.10
32524;DHT22;18965;52.242;20.886;2022-08-25T11:19:15;30.50;46.80
32524;DHT22;18965;52.242;20.886;2022-08-25T11:27:06;30.60;47.60
32524;DHT22;18965;52.242;20.886;2022-08-25T11:29:37;30.60;47.50
32524;DHT22;18965;52.242;20.886;2022-08-25T11:32:03;30.60;47.50
32524;DHT22;18965;52.242;20.886;2022-08-25T11:34:35;30.50;47.10
32524;DHT22;18965;52.242;20.886;2022-08-25T11:37:26;30.60;47.20
32524;DHT22;18965;52.242;20.886;2022-08-25T11:40:25;30.60;46.70
32524;DHT22;18965;52.242;20.886;2022-08-25T11:49:02;30.60;46.60
32524;DHT22;18965;52.242;20.886;2022-08-25T11:51:33;30.60;45.20
32524;DHT22;18965;52.242;20.886;2022-08-25T11:56:40;30.60;44.00
32524;DHT22;18965;52.242;20.886;2022-08-25T11:59:07;30.50;44.60
32524;DHT22;18965;52.242;20.886;2022-08-25T12:02:18;30.60;43.90
32524;DHT22;18965;52.242;20.886;2022-08-25T12:04:36;30.60;43.40
32524;DHT22;18965;52.242;20.886;2022-08-25T12:09:32;30.60;43.70
32524;DHT22;18965;52.242;20.886;2022-08-25T12:11:58;30.70;43.70
32524;DHT22;18965;52.242;20.886;2022-08-25T12:19:27;30.70;42.00
32524;DHT22;18965;52.242;20.886;2022-08-25T12:30:26;30.80;43.00
32524;DHT22;18965;52.242;20.886;2022-08-25T12:36:31;30.80;42.10
32524;DHT22;18965;52.242;20.886;2022-08-25T12:39:30;30.80;42.40
32524;DHT22;18965;52.242;20.886;2022-08-25T12:42:01;30.80;41.10
32524;DHT22;18965;52.242;20.886;2022-08-25T12:44:45;30.80;41.50
32524;DHT22;18965;52.242;20.886;2022-08-25T12:49:45;30.80;41.00
32524;DHT22;18965;52.242;20.886;2022-08-25T12:52:16;30.80;40.60
32524;DHT22;18965;52.242;20.886;2022-08-25T12:54:46;30.80;39.90
32524;DHT22;18965;52.242;20.886;2022-08-25T12:57:37;30.90;40.50
32524;DHT22;18965;52.242;20.886;2022-08-25T13:10:56;30.90;39.10
32524;DHT22;18965;52.242;20.886;2022-08-25T13:16:19;30.90;37.30
32524;DHT22;18965;52.242;20.886;2022-08-25T13:18:45;31.00;37.80
32524;DHT22;18965;52.242;20.886;2022-08-25T13:21:35;31.00;36.80
32524;DHT22;18965;52.242;20.886;2022-08-25T13:24:05;31.10;37.40
32524;DHT22;18965;52.242;20.886;2022-08-25T13:26:36;31.10;37.80
32524;DHT22;18965;52.242;20.886;2022-08-25T13:31:33;31.10;38.80
32524;DHT22;18965;52.242;20.886;2022-08-25T13:34:01;31.10;39.60
32524;DHT22;18965;52.242;20.886;2022-08-25T13:36:30;31.10;39.50
32524;DHT22;18965;52.242;20.886;2022-08-25T13:39:18;31.10;39.60
32524;DHT22;18965;52.242;20.886;2022-08-25T13:41:46;31.10;39.80
32524;DHT22;18965;52.242;20.886;2022-08-25T13:44:13;31.10;39.80
32524;DHT22;18965;52.242;20.886;2022-08-25T13:46:39;31.10;39.60
32524;DHT22;18965;52.242;20.886;2022-08-25T13:49:07;31.10;38.50
32524;DHT22;18965;52.242;20.886;2022-08-25T13:51:33;31.00;37.30
32524;DHT22;18965;52.242;20.886;2022-08-25T13:54:04;31.10;37.00
32524;DHT22;18965;52.242;20.886;2022-08-25T13:56:35;31.10;37.50
32524;DHT22;18965;52.242;20.886;2022-08-25T13:59:04;31.10;37.30
32524;DHT22;18965;52.242;20.886;2022-08-25T14:01:33;31.20;37.30
32524;DHT22;18965;52.242;20.886;2022-08-25T14:04:20;31.20;38.00
32524;DHT22;18965;52.242;20.886;2022-08-25T14:06:46;31.20;37.20
32524;DHT22;18965;52.242;20.886;2022-08-25T14:09:15;31.20;37.70
32524;DHT22;18965;52.242;20.886;2022-08-25T14:11:47;31.20;36.70
32524;DHT22;18965;52.242;20.886;2022-08-25T14:17:24;31.20;36.90
32524;DHT22;18965;52.242;20.886;2022-08-25T14:19:44;31.20;36.10
32524;DHT22;18965;52.242;20.886;2022-08-25T14:22:12;31.20;35.60
32524;DHT22;18965;52.242;20.886;2022-08-25T14:24:39;31.20;36.40
32524;DHT22;18965;52.242;20.886;2022-08-25T14:27:05;31.20;35.90
32524;DHT22;18965;52.242;20.886;2022-08-25T14:29:31;31.20;35.90
32524;DHT22;18965;52.242;20.886;2022-08-25T14:31:57;31.20;36.20
32524;DHT22;18965;52.242;20.886;2022-08-25T14:34:28;31.20;36.30
32524;DHT22;18965;52.242;20.886;2022-08-25T14:36:54;31.20;36.80
32524;DHT22;18965;52.242;20.886;2022-08-25T14:39:21;31.10;37.40
32524;DHT22;18965;52.242;20.886;2022-08-25T14:41:47;31.10;36.60
32524;DHT22;18965;52.242;20.886;2022-08-25T14:44:15;31.10;36.80
32524;DHT22;18965;52.242;20.886;2022-08-25T14:46:50;31.00;36.70
32524;DHT22;18965;52.242;20.886;2022-08-25T14:49:23;31.00;36.60
32524;DHT22;18965;52.242;20.886;2022-08-25T14:51:52;31.00;36.50
32524;DHT22;18965;52.242;20.886;2022-08-25T14:54:18;31.00;35.90
32524;DHT22;18965;52.242;20.886;2022-08-25T14:56:46;30.90;35.90
32524;DHT22;18965;52.242;20.886;2022-08-25T14:59:16;30.90;35.90
32524;DHT22;18965;52.242;20.886;2022-08-25T15:01:43;30.90;36.00
32524;DHT22;18965;52.242;20.886;2022-08-25T15:04:15;30.90;36.10
32524;DHT22;18965;52.242;20.886;2022-08-25T15:06:42;30.90;36.20
32524;DHT22;18965;52.242;20.886;2022-08-25T15:09:13;30.80;35.00
32524;DHT22;18965;52.242;20.886;2022-08-25T15:11:46;30.80;35.40
32524;DHT22;18965;52.242;20.886;2022-08-25T15:14:14;30.80;35.20
32524;DHT22;18965;52.242;20.886;2022-08-25T15:19:11;30.80;34.60
32524;DHT22;18965;52.242;20.886;2022-08-25T15:21:39;30.80;34.50
32524;DHT22;18965;52.242;20.886;2022-08-25T15:24:06;30.80;35.30
32524;DHT22;18965;52.242;20.886;2022-08-25T15:26:46;30.80;35.20
32524;DHT22;18965;52.242;20.886;2022-08-25T15:29:12;30.80;35.20
32524;DHT22;18965;52.242;20.886;2022-08-25T15:31:38;30.80;35.60
32524;DHT22;18965;52.242;20.886;2022-08-25T15:34:08;30.70;35.80
32524;DHT22;18965;52.242;20.886;2022-08-25T15:36:34;30.70;35.60
32524;DHT22;18965;52.242;20.886;2022-08-25T15:39:01;30.70;35.40
32524;DHT22;18965;52.242;20.886;2022-08-25T15:41:27;30.60;35.80
32524;DHT22;18965;52.242;20.886;2022-08-25T15:43:55;30.50;35.00
32524;DHT22;18965;52.242;20.886;2022-08-25T15:46:25;30.50;35.30
32524;DHT22;18965;52.242;20.886;2022-08-25T15:48:55;30.50;35.50
32524;DHT22;18965;52.242;20.886;2022-08-25T15:51:22;30.50;35.20
32524;DHT22;18965;52.242;20.886;2022-08-25T15:53:50;30.40;35.30
32524;DHT22;18965;52.242;20.886;2022-08-25T15:56:36;30.40;35.10
32524;DHT22;18965;52.242;20.886;2022-08-25T15:59:05;30.30;35.00
